Aeroporto :
LOGIN :

Iscrizione | Disclaimer

   EN    FR    IT 

 










Sommario :    VFR   VFR Marginale   IFR   IFR Intensivo   IFR Molto Intensivo
Visibilità : 
Base nubi : 
>= 8 km
>= 3000ft
5 / 8 km
1000 / 3000 ft
1500m / 5 km
500 / 1000 ft
800 / 1500m
200 / 500 ft
< 800m
< 200 ft
Simboli :   Temporali  Nebbia  Neve Forte  Precipitazioni Forti  Vento > 20 kt
SIGMETs :   Varie  Temporali  Ghiacco  Turbolenza  Onda orograficha  Ceneri Vulcaniche






- Altitudine del aeroporto : 194 ft


EBCV - Chièvres

ULTIMO METAR :
  • 181055Z AUTO 24007KT 9999 /// 05/03 Q1028 BLU

METARs OBSOLETI :
  • 181025Z AUTO 23007KT 9999 /// 05/03 Q1029 BLU
  • 180955Z AUTO 24007KT 9999 /// 04/03 Q1024 BLU
  • 180925Z AUTO 23006KT 9999 /// 03/02 Q1028 BLU
  • 180855Z AUTO 22007KT 9999 /// 03/02 Q1028 BLU
  • 180825Z AUTO 23007KT 9999 /// 02/02 Q1025 BLU
  • 180755Z AUTO 23008KT 9999 /// 02/01 Q1023 BLU

TAF TAF EBCV
Valido dal 18 a 10 ore il 18 a 19 ore UTC


180841Z 1810/1819 24010KT 9999 FEW010 SCT015 BKN020
TEMPO 1807/1812 8000 -SHRA SCT010 BKN015
BECMG 1812/1814 28010KT 9999 FEW015 SCT025 BY EBWM



MetMap, La meteo Aeronautica in un colpo d'occhio ! - Copyright ORBIFLY Dicembre 2007 - Disclaimer

ORBIFLY MET'MAP TEAM :

Programmazione e sviluppo : Alexandra Zaïnal
Concezione : Baudouin d'Aumeries
Aiuto per la programmazione : Marc-Olivier Méhu
Supporto tecnico e logistico : Manuel Goepfert
Aiuto per la traduzione : Arnaldo La Scala

Contatto : metmap@orbifly.com




FONTI E CREDITI :

   NOAA